createdAt,value
2023-01-15T00:00:30.033Z,975.59
2023-01-15T00:01:30.040Z,975.41
2023-01-15T00:02:30.044Z,975.48
2023-01-15T00:03:30.018Z,975.47
2023-01-15T00:04:29.982Z,975.45
2023-01-15T00:05:29.969Z,975.35
2023-01-15T00:06:29.956Z,975.36
2023-01-15T00:07:29.950Z,975.25
2023-01-15T00:08:29.943Z,975.33
2023-01-15T00:09:29.919Z,975.29
2023-01-15T00:10:29.919Z,975.23
2023-01-15T00:11:30.759Z,975.16
2023-01-15T00:12:29.900Z,975.18
2023-01-15T00:13:29.925Z,975.02
2023-01-15T00:14:29.877Z,975.01
2023-01-15T00:15:29.867Z,975.02
2023-01-15T00:16:29.850Z,975.04
2023-01-15T00:17:29.828Z,975.08
2023-01-15T00:18:30.844Z,975.16
2023-01-15T00:19:29.853Z,975.09
2023-01-15T00:20:29.816Z,975.08
2023-01-15T00:21:29.799Z,975.15
2023-01-15T00:22:29.795Z,975.12
2023-01-15T00:23:29.798Z,975.16
2023-01-15T00:24:29.765Z,975.18
2023-01-15T00:25:29.763Z,975.22
2023-01-15T00:26:29.738Z,975.20
2023-01-15T00:27:29.740Z,974.99
2023-01-15T00:28:29.733Z,974.93
2023-01-15T00:29:29.732Z,975.02
2023-01-15T00:30:29.711Z,974.88
2023-01-15T00:31:29.739Z,974.99
2023-01-15T00:32:29.687Z,975.05
2023-01-15T00:33:29.679Z,975.03
2023-01-15T00:34:29.668Z,975.06
2023-01-15T00:35:29.660Z,975.03
2023-01-15T00:36:30.755Z,975.10
2023-01-15T00:37:29.631Z,975.06
2023-01-15T00:38:29.626Z,975.11
2023-01-15T00:39:29.629Z,975.15
2023-01-15T00:40:29.612Z,975.17
2023-01-15T00:41:30.748Z,975.13
2023-01-15T00:42:29.580Z,975.26
2023-01-15T00:43:29.574Z,975.20
2023-01-15T00:44:29.602Z,975.21
2023-01-15T00:45:29.547Z,975.20
2023-01-15T00:46:29.543Z,975.17
2023-01-15T00:47:30.260Z,975.14
2023-01-15T00:48:30.516Z,975.13
2023-01-15T00:49:29.530Z,975.12
2023-01-15T00:50:29.498Z,975.13
2023-01-15T00:51:29.494Z,975.33
2023-01-15T00:52:29.480Z,975.06
2023-01-15T00:53:29.469Z,975.05
2023-01-15T00:54:29.479Z,975.16
2023-01-15T00:55:29.449Z,975.14
2023-01-15T00:56:29.445Z,975.11
2023-01-15T00:57:29.423Z,975.27
2023-01-15T00:58:29.424Z,975.14
2023-01-15T00:59:29.415Z,975.03
2023-01-15T01:00:29.464Z,975.05
2023-01-15T01:01:29.466Z,974.98
2023-01-15T01:02:29.517Z,974.95
2023-01-15T01:03:29.364Z,974.96
2023-01-15T01:04:29.366Z,974.90
2023-01-15T01:05:29.332Z,974.89
2023-01-15T01:06:30.285Z,974.94
2023-01-15T01:07:29.315Z,974.90
2023-01-15T01:08:29.308Z,974.94
2023-01-15T01:09:29.300Z,974.91
2023-01-15T01:10:29.300Z,974.95
2023-01-15T01:11:29.271Z,974.93
2023-01-15T01:12:29.271Z,974.90
2023-01-15T01:13:29.270Z,974.91
2023-01-15T01:14:29.264Z,974.98
2023-01-15T01:15:29.260Z,974.97
2023-01-15T01:16:29.251Z,975.04
2023-01-15T01:17:29.217Z,975.01
2023-01-15T01:18:29.207Z,975.17
2023-01-15T01:19:29.196Z,975.18
2023-01-15T01:20:29.192Z,975.12
2023-01-15T01:21:29.180Z,975.17
2023-01-15T01:22:29.173Z,975.02
2023-01-15T01:23:29.154Z,975.02
2023-01-15T01:24:29.153Z,975.06
2023-01-15T01:25:29.146Z,975.05
2023-01-15T01:26:29.130Z,975.06
2023-01-15T01:27:29.109Z,975.16
2023-01-15T01:28:29.097Z,975.15
2023-01-15T01:29:29.105Z,975.15
2023-01-15T01:30:29.091Z,975.25
2023-01-15T01:31:29.091Z,975.34
2023-01-15T01:32:29.069Z,975.30
2023-01-15T01:33:29.051Z,975.35
2023-01-15T01:34:29.029Z,975.39
2023-01-15T01:35:29.041Z,975.47
2023-01-15T01:36:29.015Z,975.48
2023-01-15T01:37:29.006Z,975.48
2023-01-15T01:38:28.989Z,975.46
2023-01-15T01:39:28.990Z,975.44
2023-01-15T01:40:28.990Z,975.56
2023-01-15T01:41:28.970Z,975.51
2023-01-15T01:42:28.968Z,975.47
2023-01-15T01:43:29.966Z,975.42
2023-01-15T01:44:28.947Z,975.41
2023-01-15T01:45:29.013Z,975.55
2023-01-15T01:46:28.927Z,975.52
2023-01-15T01:47:28.904Z,975.50
2023-01-15T01:48:28.891Z,975.48
2023-01-15T01:49:28.883Z,975.57
2023-01-15T01:50:28.885Z,975.54
2023-01-15T01:51:28.867Z,975.60
2023-01-15T01:52:28.855Z,975.59
2023-01-15T01:53:28.847Z,975.64
2023-01-15T01:54:28.833Z,975.59
2023-01-15T01:55:28.832Z,975.63
2023-01-15T01:56:28.813Z,975.58
2023-01-15T01:57:28.798Z,975.65
2023-01-15T01:58:28.788Z,975.59
2023-01-15T01:59:28.767Z,975.62
2023-01-15T02:00:28.759Z,975.62
2023-01-15T02:01:28.923Z,975.64
2023-01-15T02:02:28.790Z,975.64
2023-01-15T02:03:28.742Z,975.74
2023-01-15T02:04:28.728Z,975.66
2023-01-15T02:05:28.713Z,975.69
2023-01-15T02:06:28.711Z,975.75
2023-01-15T02:07:28.684Z,975.77
2023-01-15T02:08:28.680Z,975.82
2023-01-15T02:09:28.666Z,975.78
2023-01-15T02:10:28.649Z,975.91
2023-01-15T02:11:28.655Z,975.85
2023-01-15T02:12:28.641Z,975.88
2023-01-15T02:13:28.623Z,975.87
2023-01-15T02:14:28.604Z,975.92
2023-01-15T02:15:28.603Z,975.92
2023-01-15T02:16:28.716Z,975.93
2023-01-15T02:17:28.568Z,976.00
2023-01-15T02:18:28.571Z,976.07
2023-01-15T02:19:28.551Z,976.08
2023-01-15T02:20:28.552Z,976.12
2023-01-15T02:21:28.537Z,976.17
2023-01-15T02:22:28.524Z,976.16
2023-01-15T02:23:28.537Z,976.23
2023-01-15T02:24:28.494Z,976.22
2023-01-15T02:25:28.532Z,976.20
2023-01-15T02:26:28.498Z,976.24
2023-01-15T02:27:28.466Z,976.25
2023-01-15T02:28:28.460Z,976.29
2023-01-15T02:29:28.447Z,976.29
2023-01-15T02:30:28.456Z,976.29
2023-01-15T02:31:28.481Z,976.31
2023-01-15T02:32:28.421Z,976.32
2023-01-15T02:33:28.402Z,976.41
2023-01-15T02:34:28.405Z,976.37
2023-01-15T02:35:28.384Z,976.40
2023-01-15T02:36:28.399Z,976.41
2023-01-15T02:37:28.382Z,976.39
2023-01-15T02:38:28.353Z,976.44
2023-01-15T02:39:28.342Z,976.42
2023-01-15T02:40:28.326Z,976.43
2023-01-15T02:41:28.341Z,976.40
2023-01-15T02:42:28.302Z,976.49
2023-01-15T02:43:28.307Z,976.44
2023-01-15T02:44:28.278Z,976.43
2023-01-15T02:45:29.307Z,976.46
2023-01-15T02:46:28.281Z,976.45
2023-01-15T02:47:28.262Z,976.36
2023-01-15T02:48:28.256Z,976.39
2023-01-15T02:49:28.239Z,976.35
2023-01-15T02:50:28.230Z,976.50
2023-01-15T02:51:28.223Z,976.43
2023-01-15T02:52:28.205Z,976.53
2023-01-15T02:53:28.209Z,976.46
2023-01-15T02:54:28.223Z,976.44
2023-01-15T02:55:28.182Z,976.45
2023-01-15T02:56:28.184Z,976.46
2023-01-15T02:57:28.162Z,976.42
2023-01-15T02:58:28.137Z,976.42
2023-01-15T02:59:28.129Z,976.37
2023-01-15T03:00:28.125Z,976.47
2023-01-15T03:01:28.318Z,976.44
2023-01-15T03:02:28.155Z,976.55
2023-01-15T03:03:28.092Z,976.46
2023-01-15T03:04:28.090Z,976.45
2023-01-15T03:05:28.071Z,976.30
2023-01-15T03:06:28.073Z,976.42
2023-01-15T03:07:28.060Z,976.44
2023-01-15T03:08:28.034Z,976.47
2023-01-15T03:09:28.026Z,976.46
2023-01-15T03:10:28.029Z,976.45
2023-01-15T03:11:28.000Z,976.43
2023-01-15T03:12:27.993Z,976.46
2023-01-15T03:13:27.981Z,976.52
2023-01-15T03:14:27.967Z,976.43
2023-01-15T03:15:27.959Z,976.53
2023-01-15T03:16:28.022Z,976.48
2023-01-15T03:17:27.953Z,976.73
2023-01-15T03:18:27.930Z,976.71
2023-01-15T03:19:27.931Z,976.71
2023-01-15T03:20:27.905Z,976.73
2023-01-15T03:21:27.898Z,976.75
2023-01-15T03:22:27.886Z,976.73
2023-01-15T03:23:27.889Z,976.74
2023-01-15T03:24:28.860Z,976.65
2023-01-15T03:25:27.915Z,976.74
2023-01-15T03:26:27.902Z,976.79
2023-01-15T03:27:27.886Z,976.81
2023-01-15T03:28:27.821Z,976.70
2023-01-15T03:29:27.807Z,976.71
2023-01-15T03:30:27.838Z,976.73
2023-01-15T03:31:27.781Z,976.67
2023-01-15T03:32:27.777Z,976.73
2023-01-15T03:33:27.758Z,976.87
2023-01-15T03:34:27.759Z,976.72
2023-01-15T03:35:27.761Z,976.76
2023-01-15T03:36:27.761Z,976.76
2023-01-15T03:37:27.736Z,976.73
2023-01-15T03:38:27.708Z,976.86
2023-01-15T03:39:27.701Z,976.88
2023-01-15T03:40:27.682Z,976.84
2023-01-15T03:41:27.671Z,976.83
2023-01-15T03:42:27.669Z,976.85
2023-01-15T03:43:27.653Z,976.86
2023-01-15T03:44:27.651Z,976.81
2023-01-15T03:45:27.640Z,976.84
2023-01-15T03:46:27.621Z,976.81
2023-01-15T03:47:27.622Z,976.80
2023-01-15T03:48:27.599Z,976.88
2023-01-15T03:49:27.593Z,976.79
2023-01-15T03:50:27.593Z,976.82
2023-01-15T03:51:27.562Z,976.74
2023-01-15T03:52:27.559Z,976.73
2023-01-15T03:53:27.539Z,976.75
2023-01-15T03:54:27.531Z,976.79
2023-01-15T03:55:27.516Z,976.84
2023-01-15T03:56:27.513Z,976.94
2023-01-15T03:57:27.503Z,977.01
2023-01-15T03:58:27.493Z,976.97
2023-01-15T03:59:27.479Z,977.06
2023-01-15T04:00:27.498Z,977.05
2023-01-15T04:01:27.564Z,977.00
2023-01-15T04:02:27.467Z,976.96
2023-01-15T04:03:27.442Z,977.07
2023-01-15T04:04:27.465Z,977.02
2023-01-15T04:05:27.427Z,977.19
2023-01-15T04:06:28.407Z,977.19
2023-01-15T04:07:27.407Z,977.18
2023-01-15T04:08:27.396Z,977.17
2023-01-15T04:09:27.381Z,977.18
2023-01-15T04:10:27.381Z,977.20
2023-01-15T04:11:27.351Z,977.17
2023-01-15T04:12:27.361Z,977.14
2023-01-15T04:13:29.352Z,977.20
2023-01-15T04:14:27.319Z,977.21
2023-01-15T04:15:27.367Z,977.34
2023-01-15T04:16:27.312Z,977.29
2023-01-15T04:17:27.311Z,977.26
2023-01-15T04:18:27.277Z,977.39
2023-01-15T04:19:27.272Z,977.49
2023-01-15T04:20:27.265Z,977.42
2023-01-15T04:21:27.254Z,977.40
2023-01-15T04:22:27.250Z,977.38
2023-01-15T04:23:27.241Z,977.33
2023-01-15T04:24:27.223Z,977.47
2023-01-15T04:25:27.250Z,977.47
2023-01-15T04:26:27.202Z,977.52
2023-01-15T04:27:27.188Z,977.57
2023-01-15T04:28:27.186Z,977.54
2023-01-15T04:29:27.168Z,977.47
2023-01-15T04:30:27.156Z,977.54
2023-01-15T04:31:27.145Z,977.50
2023-01-15T04:32:27.132Z,977.47
2023-01-15T04:33:27.134Z,977.46
2023-01-15T04:34:27.123Z,977.51
2023-01-15T04:35:27.112Z,977.41
2023-01-15T04:36:27.093Z,977.41
2023-01-15T04:37:27.083Z,977.40
2023-01-15T04:38:27.093Z,977.44
2023-01-15T04:39:27.063Z,977.41
2023-01-15T04:40:27.049Z,977.32
2023-01-15T04:41:27.045Z,977.45
2023-01-15T04:42:27.038Z,977.39
2023-01-15T04:43:27.028Z,977.36
2023-01-15T04:44:27.029Z,977.44
2023-01-15T04:45:27.006Z,977.27
2023-01-15T04:46:27.008Z,977.25
2023-01-15T04:47:26.982Z,977.22
2023-01-15T04:48:26.997Z,977.22
2023-01-15T04:49:26.954Z,977.39
2023-01-15T04:50:26.947Z,977.41
2023-01-15T04:51:26.944Z,977.40
2023-01-15T04:52:26.937Z,977.37
2023-01-15T04:53:26.930Z,977.46
2023-01-15T04:54:26.905Z,977.41
2023-01-15T04:55:26.898Z,977.45
2023-01-15T04:56:26.889Z,977.44
2023-01-15T04:57:26.889Z,977.42
2023-01-15T04:58:26.878Z,977.47
2023-01-15T04:59:26.857Z,977.39
2023-01-15T05:00:27.842Z,977.33
2023-01-15T05:01:26.936Z,977.32
2023-01-15T05:02:26.999Z,977.38
2023-01-15T05:03:26.840Z,977.40
2023-01-15T05:04:26.842Z,977.54
2023-01-15T05:05:26.804Z,977.50
2023-01-15T05:06:26.786Z,977.50
2023-01-15T05:07:26.775Z,977.56
2023-01-15T05:08:26.769Z,977.52
2023-01-15T05:09:26.756Z,977.56
2023-01-15T05:10:26.750Z,977.59
2023-01-15T05:11:26.739Z,977.55
2023-01-15T05:12:27.725Z,977.58
2023-01-15T05:13:26.728Z,977.54
2023-01-15T05:14:26.697Z,977.47
2023-01-15T05:15:26.691Z,977.53
2023-01-15T05:16:26.689Z,977.62
2023-01-15T05:17:26.676Z,977.61
2023-01-15T05:18:26.677Z,977.58
2023-01-15T05:19:26.644Z,977.61
2023-01-15T05:20:26.637Z,977.66
2023-01-15T05:21:26.634Z,977.58
2023-01-15T05:22:26.622Z,977.59
2023-01-15T05:23:26.625Z,977.62
2023-01-15T05:24:26.605Z,977.65
2023-01-15T05:25:26.585Z,977.70
2023-01-15T05:26:26.587Z,977.67
2023-01-15T05:27:26.573Z,977.69
2023-01-15T05:28:26.554Z,977.75
2023-01-15T05:29:26.574Z,977.64
2023-01-15T05:30:26.541Z,977.65
2023-01-15T05:31:26.582Z,977.66
2023-01-15T05:32:26.517Z,977.64
2023-01-15T05:33:26.495Z,977.65
2023-01-15T05:34:26.501Z,977.73
2023-01-15T05:35:26.476Z,977.76
2023-01-15T05:36:26.476Z,977.73
2023-01-15T05:37:26.450Z,977.73
2023-01-15T05:38:26.452Z,977.77
2023-01-15T05:39:26.441Z,977.66
2023-01-15T05:40:26.436Z,977.68
2023-01-15T05:41:26.425Z,977.73
2023-01-15T05:42:26.414Z,977.66
2023-01-15T05:43:26.393Z,977.73
2023-01-15T05:44:26.404Z,977.74
2023-01-15T05:45:26.384Z,977.76
2023-01-15T05:46:26.383Z,977.81
2023-01-15T05:47:26.360Z,977.74
2023-01-15T05:48:26.360Z,977.81
2023-01-15T05:49:26.368Z,977.80
2023-01-15T05:50:28.381Z,977.80
2023-01-15T05:51:26.311Z,977.78
2023-01-15T05:52:26.307Z,977.80
2023-01-15T05:53:26.295Z,977.78
2023-01-15T05:54:26.319Z,977.91
2023-01-15T05:55:26.273Z,977.88
2023-01-15T05:56:26.275Z,977.94
2023-01-15T05:57:26.258Z,977.96
2023-01-15T05:58:26.246Z,977.88
2023-01-15T05:59:26.269Z,977.88
2023-01-15T06:00:26.231Z,977.90
2023-01-15T06:01:26.231Z,977.79
2023-01-15T06:02:26.225Z,977.79
2023-01-15T06:03:26.200Z,977.87
2023-01-15T06:04:26.190Z,977.85
2023-01-15T06:05:26.183Z,977.91
2023-01-15T06:06:26.170Z,977.94
2023-01-15T06:07:26.162Z,978.00
2023-01-15T06:08:26.150Z,977.95
2023-01-15T06:09:26.147Z,977.89
2023-01-15T06:10:27.128Z,977.87
2023-01-15T06:11:26.117Z,977.90
2023-01-15T06:12:26.105Z,977.92
2023-01-15T06:13:26.111Z,977.98
2023-01-15T06:14:26.112Z,977.94
2023-01-15T06:15:26.082Z,977.94
2023-01-15T06:16:26.070Z,977.94
2023-01-15T06:17:26.064Z,978.00
2023-01-15T06:18:26.062Z,978.10
2023-01-15T06:19:26.057Z,978.14
2023-01-15T06:20:26.043Z,978.11
2023-01-15T06:21:26.015Z,978.16
2023-01-15T06:22:26.015Z,978.15
2023-01-15T06:23:25.996Z,978.19
2023-01-15T06:24:26.000Z,978.25
2023-01-15T06:25:25.982Z,978.35
2023-01-15T06:26:25.972Z,978.25
2023-01-15T06:27:25.969Z,978.26
2023-01-15T06:28:25.947Z,978.34
2023-01-15T06:29:25.948Z,978.16
2023-01-15T06:30:25.929Z,978.21
2023-01-15T06:31:25.950Z,978.25
2023-01-15T06:32:25.901Z,978.22
2023-01-15T06:33:25.905Z,978.19
2023-01-15T06:34:25.904Z,978.07
2023-01-15T06:35:25.892Z,978.00
2023-01-15T06:36:25.868Z,978.05
2023-01-15T06:37:25.859Z,978.00
2023-01-15T06:38:25.857Z,978.05
2023-01-15T06:39:25.863Z,977.96
2023-01-15T06:40:25.828Z,978.09
2023-01-15T06:41:25.828Z,978.11
2023-01-15T06:42:25.797Z,978.24
2023-01-15T06:43:25.826Z,978.08
2023-01-15T06:44:28.225Z,978.03
2023-01-15T06:45:25.790Z,978.04
2023-01-15T06:46:25.783Z,978.18
2023-01-15T06:47:25.769Z,978.12
2023-01-15T06:48:25.748Z,978.13
2023-01-15T06:49:25.738Z,978.13
2023-01-15T06:50:25.748Z,978.01
2023-01-15T06:51:25.723Z,978.02
2023-01-15T06:52:25.731Z,978.11
2023-01-15T06:53:25.699Z,978.17
2023-01-15T06:54:25.691Z,978.18
2023-01-15T06:55:25.683Z,978.12
2023-01-15T06:56:25.671Z,978.04
2023-01-15T06:57:25.669Z,978.01
2023-01-15T06:58:25.649Z,978.09
2023-01-15T06:59:25.653Z,978.08
2023-01-15T07:00:25.672Z,978.13
2023-01-15T07:01:25.717Z,978.15
2023-01-15T07:02:25.622Z,978.10
2023-01-15T07:03:25.609Z,978.20
2023-01-15T07:04:25.602Z,978.18
2023-01-15T07:05:25.594Z,978.14
2023-01-15T07:06:26.511Z,978.15
2023-01-15T07:07:26.565Z,978.14
2023-01-15T07:08:25.554Z,978.10
2023-01-15T07:09:25.570Z,978.15
2023-01-15T07:10:25.563Z,978.17
2023-01-15T07:11:25.537Z,978.17
2023-01-15T07:12:25.537Z,978.07
2023-01-15T07:13:25.509Z,978.07
2023-01-15T07:14:25.510Z,978.05
2023-01-15T07:15:25.495Z,978.13
2023-01-15T07:16:25.498Z,978.11
2023-01-15T07:17:25.478Z,978.12
2023-01-15T07:18:25.459Z,978.20
2023-01-15T07:19:25.455Z,978.14
2023-01-15T07:20:25.448Z,978.28
2023-01-15T07:21:25.431Z,978.24
2023-01-15T07:22:25.414Z,978.27
2023-01-15T07:23:25.416Z,978.21
2023-01-15T07:24:25.408Z,978.24
2023-01-15T07:25:25.395Z,978.39
2023-01-15T07:26:25.371Z,978.36
2023-01-15T07:27:25.371Z,978.47
2023-01-15T07:28:25.385Z,978.36
2023-01-15T07:29:26.352Z,978.30
2023-01-15T07:30:25.353Z,978.29
2023-01-15T07:31:25.351Z,978.31
2023-01-15T07:32:25.314Z,978.33
2023-01-15T07:33:25.297Z,978.48
2023-01-15T07:34:26.307Z,978.37
2023-01-15T07:35:25.904Z,978.48
2023-01-15T07:36:25.279Z,978.45
2023-01-15T07:37:26.849Z,978.60
2023-01-15T07:39:20.524Z,978.37
2023-01-15T07:39:25.310Z,978.41
2023-01-15T07:40:25.284Z,978.37
2023-01-15T07:41:25.300Z,978.39
2023-01-15T07:42:25.245Z,978.42
2023-01-15T07:43:25.221Z,978.47
2023-01-15T07:44:25.210Z,978.53
2023-01-15T07:45:25.233Z,978.55
2023-01-15T07:46:25.195Z,978.63
2023-01-15T07:47:25.177Z,978.63
2023-01-15T07:48:25.167Z,978.70
2023-01-15T07:49:25.157Z,978.72
2023-01-15T07:50:25.155Z,978.56
2023-01-15T07:51:25.147Z,978.53
2023-01-15T07:52:25.134Z,978.56
2023-01-15T07:53:25.138Z,978.67
2023-01-15T07:54:25.107Z,978.66
2023-01-15T07:55:25.120Z,978.59
2023-01-15T07:56:25.120Z,978.67
2023-01-15T07:57:25.073Z,978.71
2023-01-15T07:58:25.070Z,978.57
2023-01-15T07:59:25.083Z,978.64
2023-01-15T08:00:25.053Z,978.62
2023-01-15T08:01:25.100Z,978.74
2023-01-15T08:02:25.043Z,978.79
2023-01-15T08:03:25.019Z,978.71
2023-01-15T08:04:24.997Z,978.75
2023-01-15T08:05:24.999Z,978.83
2023-01-15T08:06:25.002Z,978.81
2023-01-15T08:07:24.969Z,978.83
2023-01-15T08:08:24.971Z,978.82
2023-01-15T08:09:24.957Z,978.87
2023-01-15T08:10:24.949Z,978.99
2023-01-15T08:11:24.955Z,978.87
2023-01-15T08:12:24.926Z,978.93
2023-01-15T08:13:24.920Z,978.86
2023-01-15T08:14:24.914Z,978.77
2023-01-15T08:15:24.895Z,978.82
2023-01-15T08:16:24.919Z,978.93
2023-01-15T08:17:24.906Z,978.95
2023-01-15T08:18:24.868Z,978.85
2023-01-15T08:19:24.867Z,978.90
2023-01-15T08:20:24.857Z,978.87
2023-01-15T08:21:24.834Z,978.99
2023-01-15T08:22:24.839Z,978.91
2023-01-15T08:23:24.823Z,978.90
2023-01-15T08:24:24.822Z,978.87
2023-01-15T08:25:24.811Z,978.96
2023-01-15T08:26:24.797Z,978.82
2023-01-15T08:27:24.802Z,978.84
2023-01-15T08:28:24.781Z,978.87
2023-01-15T08:29:24.768Z,978.85
2023-01-15T08:30:24.745Z,978.96
2023-01-15T08:31:24.800Z,978.86
2023-01-15T08:32:24.735Z,978.90
2023-01-15T08:33:24.727Z,978.94
2023-01-15T08:34:24.722Z,978.93
2023-01-15T08:35:24.698Z,978.95
2023-01-15T08:36:24.703Z,978.98
2023-01-15T08:37:25.503Z,979.05
2023-01-15T08:38:25.689Z,979.05
2023-01-15T08:39:24.656Z,979.10
2023-01-15T08:40:24.657Z,979.11
2023-01-15T08:41:24.637Z,979.11
2023-01-15T08:42:24.641Z,979.23
2023-01-15T08:43:24.620Z,979.25
2023-01-15T08:44:24.705Z,979.14
2023-01-15T08:45:24.779Z,979.13
2023-01-15T08:46:24.603Z,979.17
2023-01-15T08:47:24.597Z,979.24
2023-01-15T08:48:24.557Z,979.23
2023-01-15T08:49:24.553Z,979.30
2023-01-15T08:50:24.612Z,979.20
2023-01-15T08:51:24.526Z,979.28
2023-01-15T08:52:24.543Z,979.24
2023-01-15T08:53:24.509Z,979.36
2023-01-15T08:54:24.515Z,979.34
2023-01-15T08:55:24.493Z,979.29
2023-01-15T08:56:24.487Z,979.28
2023-01-15T08:57:24.483Z,979.34
2023-01-15T08:58:24.484Z,979.29
2023-01-15T08:59:24.468Z,979.38
2023-01-15T09:00:24.511Z,979.34
2023-01-15T09:01:24.597Z,979.43
2023-01-15T09:02:25.375Z,979.41
2023-01-15T09:03:24.427Z,979.33
2023-01-15T09:04:24.448Z,979.42
2023-01-15T09:05:24.384Z,979.43
2023-01-15T09:06:24.370Z,979.46
2023-01-15T09:07:24.440Z,979.47
2023-01-15T09:08:24.373Z,979.51
2023-01-15T09:09:24.344Z,979.46
2023-01-15T09:10:24.339Z,979.53
2023-01-15T09:11:24.344Z,979.47
2023-01-15T09:12:24.316Z,979.51
2023-01-15T09:13:24.340Z,979.38
2023-01-15T09:14:57.836Z,979.46
2023-01-15T09:15:25.275Z,979.34
2023-01-15T09:16:24.277Z,979.39
2023-01-15T09:17:24.256Z,979.42
2023-01-15T09:18:24.425Z,979.49
2023-01-15T09:19:24.239Z,979.44
2023-01-15T09:20:24.232Z,979.47
2023-01-15T09:21:24.230Z,979.42
2023-01-15T09:22:24.216Z,979.44
2023-01-15T09:23:24.215Z,979.45
2023-01-15T09:24:24.195Z,979.48
2023-01-15T09:25:24.184Z,979.51
2023-01-15T09:26:24.172Z,979.58
2023-01-15T09:27:24.183Z,979.57
2023-01-15T09:28:24.171Z,979.49
2023-01-15T09:29:24.138Z,979.50
2023-01-15T09:30:24.136Z,979.49
2023-01-15T09:31:24.123Z,979.60
2023-01-15T09:32:24.124Z,979.52
2023-01-15T09:33:24.103Z,979.64
2023-01-15T09:34:24.100Z,979.61
2023-01-15T09:35:24.083Z,979.56
2023-01-15T09:36:24.080Z,979.58
2023-01-15T09:37:24.058Z,979.63
2023-01-15T09:38:24.052Z,979.47
2023-01-15T09:39:24.049Z,979.49
2023-01-15T09:40:24.034Z,979.57
2023-01-15T09:41:24.023Z,979.63
2023-01-15T09:42:24.019Z,979.70
2023-01-15T09:43:24.010Z,979.80
2023-01-15T09:44:24.012Z,979.66
2023-01-15T09:45:23.984Z,979.69
2023-01-15T09:46:24.011Z,979.60
2023-01-15T09:47:23.972Z,979.63
2023-01-15T09:48:23.954Z,979.70
2023-01-15T09:49:23.960Z,979.58
2023-01-15T09:50:23.934Z,979.62
2023-01-15T09:51:23.927Z,979.56
2023-01-15T09:52:23.911Z,979.59
2023-01-15T09:53:23.901Z,979.57
2023-01-15T09:54:23.903Z,979.51
2023-01-15T09:55:23.935Z,979.61
2023-01-15T09:56:23.890Z,979.67
2023-01-15T09:57:23.901Z,979.73
2023-01-15T09:58:23.877Z,979.60
2023-01-15T09:59:23.880Z,979.72
2023-01-15T10:00:23.856Z,979.75
2023-01-15T10:01:23.845Z,979.70
2023-01-15T10:02:23.820Z,979.79
2023-01-15T10:03:23.924Z,979.67
2023-01-15T10:04:23.846Z,979.70
2023-01-15T10:05:23.811Z,979.74
2023-01-15T10:06:23.793Z,979.71
2023-01-15T10:07:23.775Z,979.85
2023-01-15T10:08:23.765Z,979.71
2023-01-15T10:09:23.771Z,979.79
2023-01-15T10:10:23.733Z,979.70
2023-01-15T10:11:23.713Z,979.86
2023-01-15T10:12:23.712Z,979.74
2023-01-15T10:13:23.712Z,979.80
2023-01-15T10:14:23.704Z,979.79
2023-01-15T10:15:23.684Z,979.81
2023-01-15T10:16:23.689Z,979.72
2023-01-15T10:17:23.665Z,979.73
2023-01-15T10:18:23.639Z,979.88
2023-01-15T10:19:23.634Z,979.72
2023-01-15T10:20:23.647Z,979.72
2023-01-15T10:21:23.617Z,979.71
2023-01-15T10:22:23.618Z,979.79
2023-01-15T10:23:23.605Z,979.65
2023-01-15T10:24:23.600Z,979.69
2023-01-15T10:25:23.579Z,979.78
2023-01-15T10:26:23.563Z,979.80
2023-01-15T10:27:23.560Z,979.70
2023-01-15T10:28:23.546Z,979.66
2023-01-15T10:29:23.539Z,979.72
2023-01-15T10:30:23.528Z,979.66
2023-01-15T10:31:23.574Z,979.65
2023-01-15T10:32:23.510Z,979.69
2023-01-15T10:33:23.498Z,979.67
2023-01-15T10:34:23.485Z,979.69
2023-01-15T10:35:23.487Z,979.76
2023-01-15T10:36:23.485Z,979.77
2023-01-15T10:37:23.460Z,979.67
2023-01-15T10:38:23.445Z,979.72
2023-01-15T10:39:23.446Z,979.76
2023-01-15T10:40:23.447Z,979.79
2023-01-15T10:41:23.395Z,979.81
2023-01-15T10:42:24.409Z,979.77
2023-01-15T10:43:23.383Z,979.82
2023-01-15T10:44:23.399Z,979.79
2023-01-15T10:45:23.376Z,979.77
2023-01-15T10:46:23.407Z,979.82
2023-01-15T10:47:23.361Z,979.78
2023-01-15T10:48:23.340Z,979.74
2023-01-15T10:49:23.348Z,979.81
2023-01-15T10:50:23.332Z,979.80
2023-01-15T10:51:23.300Z,979.84
2023-01-15T10:52:23.293Z,979.86
2023-01-15T10:53:23.275Z,979.78
2023-01-15T10:54:23.284Z,979.84
2023-01-15T10:55:23.275Z,979.79
2023-01-15T10:56:23.251Z,979.73
2023-01-15T10:57:23.245Z,979.63
2023-01-15T10:58:23.226Z,979.77
2023-01-15T10:59:23.218Z,979.66
2023-01-15T11:00:23.247Z,979.70
2023-01-15T11:01:23.331Z,979.67
2023-01-15T11:02:23.325Z,979.68
2023-01-15T11:03:23.191Z,979.71
2023-01-15T11:04:23.173Z,979.71
2023-01-15T11:05:23.150Z,979.71
2023-01-15T11:06:23.150Z,979.73
2023-01-15T11:07:23.369Z,979.74
2023-01-15T11:09:25.157Z,979.58
2023-01-15T11:10:23.140Z,979.69
2023-01-15T11:11:23.135Z,979.55
2023-01-15T11:12:23.097Z,979.55
2023-01-15T11:13:23.094Z,979.54
2023-01-15T11:14:23.128Z,979.52
2023-01-15T11:15:23.092Z,979.57
2023-01-15T11:16:23.096Z,979.52
2023-01-15T11:17:23.093Z,979.59
2023-01-15T11:18:23.100Z,979.58
2023-01-15T11:19:23.065Z,979.49
2023-01-15T11:20:23.038Z,979.46
2023-01-15T11:21:23.087Z,979.52
2023-01-15T11:22:23.050Z,979.58
2023-01-15T11:23:23.040Z,979.48
2023-01-15T11:24:22.998Z,979.59
2023-01-15T11:25:23.031Z,979.49
2023-01-15T11:26:23.008Z,979.43
2023-01-15T11:27:23.008Z,979.45
2023-01-15T11:28:22.973Z,979.51
2023-01-15T11:29:22.931Z,979.51
2023-01-15T11:30:22.983Z,979.51
2023-01-15T11:31:22.968Z,979.54
2023-01-15T11:32:22.947Z,979.55
2023-01-15T11:33:22.950Z,979.48
2023-01-15T11:34:22.915Z,979.45
2023-01-15T11:35:22.907Z,979.58
2023-01-15T11:36:22.923Z,979.45
2023-01-15T11:37:22.884Z,979.57
2023-01-15T11:38:22.865Z,979.55
2023-01-15T11:39:22.850Z,979.55
2023-01-15T11:40:22.856Z,979.65
2023-01-15T11:41:22.885Z,979.64
2023-01-15T11:42:22.883Z,979.58
2023-01-15T11:43:22.798Z,979.59
2023-01-15T11:44:22.831Z,979.61
2023-01-15T11:45:22.863Z,979.64
2023-01-15T11:46:22.838Z,979.49
2023-01-15T11:47:22.796Z,979.56
2023-01-15T11:48:22.768Z,979.63
2023-01-15T11:49:22.777Z,979.63
2023-01-15T11:50:22.769Z,979.57
2023-01-15T11:51:22.734Z,979.58
2023-01-15T11:52:22.772Z,979.55
2023-01-15T11:53:22.713Z,979.58
2023-01-15T11:54:22.704Z,979.62
2023-01-15T11:55:22.691Z,979.60
2023-01-15T11:56:22.690Z,979.56
2023-01-15T11:57:22.721Z,979.55
2023-01-15T11:58:22.657Z,979.53
2023-01-15T11:59:22.649Z,979.52
2023-01-15T12:00:22.643Z,979.65
2023-01-15T12:01:22.644Z,979.56
2023-01-15T12:02:22.651Z,979.56
2023-01-15T12:03:22.715Z,979.43
2023-01-15T12:04:22.753Z,979.45
2023-01-15T12:05:22.600Z,979.37
2023-01-15T12:06:22.593Z,979.33
2023-01-15T12:07:22.569Z,979.35
2023-01-15T12:08:22.557Z,979.48
2023-01-15T12:09:22.542Z,979.41
2023-01-15T12:10:22.576Z,979.47
2023-01-15T12:11:27.166Z,979.37
2023-01-15T12:12:23.524Z,979.44
2023-01-15T12:13:22.537Z,979.52
2023-01-15T12:14:22.527Z,979.39
2023-01-15T12:15:22.494Z,979.45
2023-01-15T12:16:22.540Z,979.40
2023-01-15T12:17:22.512Z,979.43
2023-01-15T12:18:22.447Z,979.34
2023-01-15T12:19:22.465Z,979.42
2023-01-15T12:20:22.441Z,979.35
2023-01-15T12:21:22.419Z,979.40
2023-01-15T12:22:22.441Z,979.53
2023-01-15T12:23:22.396Z,979.43
2023-01-15T12:24:22.416Z,979.41
2023-01-15T12:25:22.374Z,979.42
2023-01-15T12:26:22.369Z,979.52
2023-01-15T12:27:22.376Z,979.41
2023-01-15T12:28:22.396Z,979.38
2023-01-15T12:29:22.336Z,979.23